Destin, Florida
Current Conditions -  °F | °C
As of 2:53 PM on Saturday 25 Oct 2014 (Local Time) from KDTS Reporting Station
Clear Clear  
Wind Chill: 80°   Ceiling: Unl
Heat Index: 80°   Visibility: 10mi
Dew Point: 46°   Wind: 7mph
Humidity: 30%   Direction: 360°N
Pressure: 30.02"   Gusts: NA
Location:  30.39°N, 86.49°W
Report Text: KDTS 251953Z AUTO 36006KT 10SM CLR 27/08 A3002 RMK AO2 SLP164 T02670078 TSNO
Loading
Personal Weather Stations






























Interactive Weather Map
Tropical Storm Tracking
New forecast layout! Learn more

10-Day Weather Forecast

Advertisements
Track Severe Weather on mobile